Time;durP1;ratioP1;P1;durP2;ratioP2;P2;SDS_P1;SDS_P2;PMS_P1;PMS_P2;Temp;Humidity;BMP_temperature;BMP_pressure;BME280_temperature;BME280_humidity;BME280_pressure;Samples;Min_cycle;Max_cycle;Signal;HPM_P1;HPM_P2
2023/12/10 00:01:14;;;;;;;12.25;10.27;;;10.50;96.70;;;;;;4878961;29;20052;-59
2023/12/10 00:03:42;;;;;;;10.82;9.70;;;10.50;96.70;;;;;;4867561;29;20056;-59
2023/12/10 00:06:12;;;;;;;11.00;8.48;;;10.50;96.70;;;;;;4886935;29;20416;-59
2023/12/10 00:08:43;;;;;;;12.90;9.75;;;10.60;96.70;;;;;;4879070;29;20052;-59
2023/12/10 00:11:12;;;;;;;9.23;7.78;;;10.60;96.70;;;;;;4892596;29;20056;-58
2023/12/10 00:13:40;;;;;;;10.63;8.60;;;10.60;96.70;;;;;;4888198;29;20048;-59
2023/12/10 00:16:12;;;;;;;9.57;7.70;;;10.70;96.70;;;;;;4880430;29;20356;-59
2023/12/10 00:19:08;;;;;;;10.75;9.00;;;10.70;96.70;;;;;;4875197;29;20704;-59
2023/12/10 00:21:38;;;;;;;10.00;8.98;;;10.60;96.70;;;;;;4873537;29;20052;-59
2023/12/10 00:24:09;;;;;;;9.25;8.25;;;10.60;96.70;;;;;;4876308;29;20123;-59
2023/12/10 00:26:38;;;;;;;9.95;8.77;;;10.60;96.70;;;;;;4882426;29;20048;-59
2023/12/10 00:29:07;;;;;;;9.35;8.10;;;10.60;96.70;;;;;;4876997;29;20100;-58
2023/12/10 00:31:37;;;;;;;10.07;8.30;;;10.60;96.70;;;;;;4881482;29;20516;-60
2023/12/10 00:34:05;;;;;;;13.38;10.32;;;10.70;96.70;;;;;;4880179;29;20060;-59
2023/12/10 00:36:34;;;;;;;10.88;9.73;;;10.70;96.70;;;;;;4866671;29;20048;-59
2023/12/10 00:39:06;;;;;;;12.38;9.68;;;10.70;96.70;;;;;;4873772;29;20044;-59
2023/12/10 00:41:37;;;;;;;9.02;8.10;;;10.70;96.70;;;;;;4880186;29;20060;-59
2023/12/10 00:44:06;;;;;;;7.50;6.47;;;10.70;96.70;;;;;;4887130;29;20059;-59
2023/12/10 00:46:35;;;;;;;8.18;6.85;;;10.70;96.70;;;;;;4833230;29;20494;-59
2023/12/10 00:49:05;;;;;;;8.30;6.10;;;10.70;96.70;;;;;;4894356;29;20052;-59
2023/12/10 00:51:35;;;;;;;6.50;5.55;;;10.80;96.70;;;;;;4872961;29;20078;-59
2023/12/10 00:54:05;;;;;;;4.82;3.85;;;10.80;96.70;;;;;;4886984;29;20045;-59
2023/12/10 00:56:37;;;;;;;7.43;3.47;;;10.80;96.70;;;;;;4884638;29;20078;-59
2023/12/10 00:59:06;;;;;;;6.90;3.58;;;10.80;96.70;;;;;;4890483;29;20044;-59
2023/12/10 01:01:36;;;;;;;5.30;3.78;;;10.80;96.70;;;;;;4894968;29;20040;-60
2023/12/10 01:04:05;;;;;;;6.60;3.88;;;10.90;96.70;;;;;;4889952;29;20091;-59
2023/12/10 01:06:34;;;;;;;5.07;3.40;;;10.90;96.70;;;;;;4879690;29;20043;-59
2023/12/10 01:09:02;;;;;;;4.05;2.95;;;10.90;96.70;;;;;;4874821;29;20048;-59
2023/12/10 01:11:31;;;;;;;2.60;1.98;;;10.90;96.70;;;;;;4871576;29;20049;-59
2023/12/10 01:14:03;;;;;;;4.80;2.63;;;10.90;96.70;;;;;;4888366;29;20139;-59
2023/12/10 01:16:32;;;;;;;2.00;1.20;;;11.00;96.70;;;;;;4893335;29;20571;-59
2023/12/10 01:19:02;;;;;;;4.55;2.60;;;11.10;96.70;;;;;;4877730;29;20068;-59
2023/12/10 01:21:30;;;;;;;2.20;0.73;;;11.10;96.70;;;;;;4871088;29;20048;-59
2023/12/10 01:24:00;;;;;;;2.65;0.90;;;11.10;96.70;;;;;;4888372;29;20051;-59
2023/12/10 01:26:28;;;;;;;1.52;1.02;;;11.10;96.70;;;;;;4876115;29;20052;-59
2023/12/10 01:28:57;;;;;;;2.58;1.15;;;11.10;96.70;;;;;;4880281;29;20132;-59
2023/12/10 01:31:35;;;;;;;2.92;1.15;;;11.10;96.70;;;;;;4891154;29;20041;-59
2023/12/10 01:34:04;;;;;;;3.40;1.35;;;11.10;96.70;;;;;;4894777;29;20134;-59
2023/12/10 01:36:33;;;;;;;1.73;1.13;;;11.10;96.70;;;;;;4865381;29;20056;-59
2023/12/10 01:39:02;;;;;;;3.03;1.70;;;11.10;96.70;;;;;;4888980;29;20054;-59
2023/12/10 01:41:31;;;;;;;2.83;1.90;;;11.10;96.70;;;;;;4892743;29;20052;-59
2023/12/10 01:44:02;;;;;;;4.82;3.42;;;11.10;96.70;;;;;;4891233;29;20058;-60
2023/12/10 01:46:32;;;;;;;4.22;3.70;;;11.10;96.70;;;;;;4876851;29;20063;-59
2023/12/10 01:49:04;;;;;;;5.22;4.75;;;11.00;96.70;;;;;;4889930;29;20044;-59
2023/12/10 01:51:34;;;;;;;6.07;5.32;;;11.00;96.70;;;;;;4885618;29;20060;-60
2023/12/10 01:54:03;;;;;;;5.95;5.30;;;11.00;96.70;;;;;;4906616;29;20068;-60
2023/12/10 01:56:33;;;;;;;5.95;5.38;;;10.90;96.70;;;;;;4895488;29;20108;-59
2023/12/10 01:59:02;;;;;;;5.82;5.20;;;10.90;96.70;;;;;;4892838;29;20063;-59
2023/12/10 02:01:34;;;;;;;5.72;5.22;;;10.90;96.70;;;;;;4866735;29;20052;-60
2023/12/10 02:04:05;;;;;;;5.60;5.00;;;10.80;96.70;;;;;;4875286;29;20518;-59
2023/12/10 02:06:35;;;;;;;5.47;4.97;;;10.80;96.70;;;;;;4872027;29;20495;-59
2023/12/10 02:09:12;;;;;;;5.63;5.05;;;10.80;96.70;;;;;;4888213;29;20052;-59
2023/12/10 02:11:43;;;;;;;8.32;5.50;;;10.80;96.70;;;;;;4878320;29;20602;-59
2023/12/10 02:14:13;;;;;;;5.60;4.70;;;10.80;96.70;;;;;;4889595;29;20117;-60
2023/12/10 02:16:44;;;;;;;5.03;4.55;;;10.80;96.70;;;;;;4871786;29;20056;-59
2023/12/10 02:19:14;;;;;;;4.95;4.55;;;10.80;96.70;;;;;;4869490;29;20052;-59
2023/12/10 02:21:47;;;;;;;4.53;4.13;;;10.80;96.70;;;;;;4882581;29;20055;-59
2023/12/10 02:24:24;;;;;;;4.57;4.18;;;10.80;96.70;;;;;;4871833;29;20105;-59
2023/12/10 02:26:55;;;;;;;4.22;3.83;;;10.80;96.70;;;;;;4872120;29;20048;-59
2023/12/10 02:29:24;;;;;;;4.65;4.25;;;10.80;96.70;;;;;;4886831;29;20131;-59
2023/12/10 02:31:55;;;;;;;4.75;4.32;;;10.80;96.70;;;;;;4878822;29;20567;-59
2023/12/10 02:34:23;;;;;;;4.75;4.20;;;10.80;96.70;;;;;;4893688;29;20467;-59
2023/12/10 02:36:54;;;;;;;4.38;3.97;;;10.80;96.70;;;;;;4877451;29;20041;-59
2023/12/10 02:39:22;;;;;;;3.85;3.47;;;10.90;96.70;;;;;;4885891;29;20060;-59
2023/12/10 02:41:51;;;;;;;3.75;2.97;;;10.90;96.70;;;;;;4867276;29;20404;-59
2023/12/10 02:44:22;;;;;;;2.63;2.20;;;10.90;96.70;;;;;;4880665;29;20052;-59
2023/12/10 02:46:52;;;;;;;3.00;2.67;;;10.90;96.70;;;;;;4873486;29;20060;-59
2023/12/10 02:49:20;;;;;;;1.90;1.67;;;10.90;96.70;;;;;;4898280;29;20052;-59
2023/12/10 02:51:50;;;;;;;1.80;1.60;;;10.90;96.70;;;;;;4888941;29;20081;-59
2023/12/10 02:54:19;;;;;;;1.30;1.02;;;11.00;96.70;;;;;;4877195;29;20052;-59
2023/12/10 02:56:48;;;;;;;2.53;1.17;;;11.00;96.70;;;;;;4882226;29;20056;-59
2023/12/10 02:59:21;;;;;;;1.15;1.00;;;11.00;96.70;;;;;;4876035;29;20101;-59
2023/12/10 03:01:51;;;;;;;1.15;0.95;;;11.00;96.70;;;;;;4873387;29;20076;-59
2023/12/10 03:04:19;;;;;;;1.33;1.05;;;11.00;96.70;;;;;;4875985;29;20076;-59
2023/12/10 03:06:50;;;;;;;1.77;1.33;;;11.00;96.70;;;;;;4879564;29;20045;-60
2023/12/10 03:09:19;;;;;;;1.30;1.20;;;11.00;96.70;;;;;;4887489;29;20049;-59
2023/12/10 03:11:47;;;;;;;2.03;1.02;;;11.00;96.70;;;;;;4874871;29;20515;-59
2023/12/10 03:14:16;;;;;;;1.95;1.27;;;10.90;96.70;;;;;;4894398;29;20058;-59
2023/12/10 03:16:48;;;;;;;2.15;1.08;;;11.00;96.70;;;;;;4870778;29;20416;-60
2023/12/10 03:19:17;;;;;;;2.95;1.80;;;11.00;96.70;;;;;;4881859;29;20048;-60
2023/12/10 03:21:47;;;;;;;2.83;1.90;;;11.00;96.70;;;;;;4878365;29;20055;-59
2023/12/10 03:24:16;;;;;;;1.67;1.58;;;11.00;96.70;;;;;;4885978;29;20044;-59
2023/12/10 03:26:46;;;;;;;2.00;1.67;;;11.00;96.70;;;;;;4876956;29;20155;-59
2023/12/10 03:29:15;;;;;;;2.50;2.30;;;11.00;96.70;;;;;;4880220;29;20526;-60
2023/12/10 03:34:48;;;;;;;3.67;2.50;;;10.90;96.70;;;;;;5110969;23;20052;-58
2023/12/10 03:37:17;;;;;;;3.00;2.50;;;10.90;96.70;;;;;;4896701;29;20043;-59
2023/12/10 03:39:45;;;;;;;3.00;2.50;;;10.90;96.70;;;;;;4903288;29;20656;-59
2023/12/10 03:42:14;;;;;;;3.05;2.40;;;10.90;96.70;;;;;;4884608;29;20054;-59
2023/12/10 03:44:44;;;;;;;3.33;2.35;;;10.90;96.70;;;;;;4892936;29;20143;-60
2023/12/10 03:47:13;;;;;;;2.65;2.45;;;10.90;96.70;;;;;;4902288;29;20094;-59
2023/12/10 03:49:43;;;;;;;3.05;2.70;;;10.90;96.70;;;;;;4899756;29;20048;-60
2023/12/10 03:52:15;;;;;;;2.72;2.45;;;10.90;96.70;;;;;;4893200;29;20047;-60
2023/12/10 03:54:45;;;;;;;2.97;2.67;;;10.90;96.70;;;;;;4891783;29;20056;-59
2023/12/10 03:57:15;;;;;;;3.25;2.70;;;10.90;96.70;;;;;;4907418;29;20072;-59
2023/12/10 03:59:45;;;;;;;3.13;2.83;;;10.90;96.70;;;;;;4900721;29;20052;-59
2023/12/10 04:02:16;;;;;;;3.40;3.08;;;10.90;96.70;;;;;;4898417;29;20103;-59
2023/12/10 04:04:46;;;;;;;4.45;3.38;;;10.90;96.70;;;;;;4898643;29;20518;-59
2023/12/10 04:07:17;;;;;;;3.20;2.80;;;10.80;96.70;;;;;;4894676;29;20110;-59
2023/12/10 04:09:46;;;;;;;2.90;2.60;;;10.80;96.70;;;;;;4900814;29;20052;-59
2023/12/10 04:12:14;;;;;;;3.50;2.45;;;10.80;96.70;;;;;;4887797;29;20052;-59
2023/12/10 04:14:47;;;;;;;2.50;2.30;;;10.80;96.70;;;;;;4901248;29;20055;-59
2023/12/10 04:17:15;;;;;;;2.40;2.20;;;10.80;96.70;;;;;;4895735;29;20075;-60
2023/12/10 04:19:48;;;;;;;2.42;1.80;;;10.90;96.70;;;;;;4903697;29;20770;-59
2023/12/10 04:22:19;;;;;;;2.63;2.20;;;10.90;96.70;;;;;;4901310;29;20497;-59
2023/12/10 04:24:47;;;;;;;2.10;1.80;;;10.90;96.70;;;;;;4900943;29;20941;-59
2023/12/10 04:27:16;;;;;;;1.60;1.48;;;10.90;96.70;;;;;;4895810;29;20103;-59
2023/12/10 04:29:45;;;;;;;1.45;1.27;;;10.90;96.70;;;;;;4899732;29;20052;-59
2023/12/10 04:32:14;;;;;;;1.48;1.38;;;10.90;96.70;;;;;;4901412;29;20058;-60
2023/12/10 04:34:43;;;;;;;1.65;1.55;;;10.90;96.70;;;;;;4913410;29;20060;-59
2023/12/10 04:37:12;;;;;;;1.55;1.10;;;10.90;96.70;;;;;;4911291;29;20070;-60
2023/12/10 04:39:44;;;;;;;2.72;1.10;;;10.90;96.70;;;;;;4887928;29;20041;-60
2023/12/10 04:42:14;;;;;;;1.33;1.23;;;10.90;96.70;;;;;;4897538;29;20712;-60
2023/12/10 04:44:42;;;;;;;2.17;1.73;;;10.90;96.70;;;;;;4916358;29;20056;-60
2023/12/10 04:47:12;;;;;;;3.38;1.20;;;10.90;96.70;;;;;;4898235;29;20048;-59
2023/12/10 04:49:41;;;;;;;2.75;1.58;;;10.90;96.70;;;;;;4901059;29;20147;-60
2023/12/10 04:52:09;;;;;;;1.85;1.60;;;10.90;96.70;;;;;;4914475;29;20044;-59
2023/12/10 04:54:38;;;;;;;1.90;1.40;;;10.90;96.70;;;;;;4885926;29;20047;-59
2023/12/10 04:57:08;;;;;;;2.45;1.83;;;10.90;96.70;;;;;;4898353;29;20103;-59
2023/12/10 04:59:40;;;;;;;3.50;2.20;;;10.90;96.70;;;;;;4885822;29;20494;-59
2023/12/10 05:02:10;;;;;;;2.13;1.95;;;10.90;96.70;;;;;;4915043;29;20059;-59
2023/12/10 05:04:38;;;;;;;3.90;1.88;;;10.90;96.70;;;;;;4898908;29;20035;-59
2023/12/10 05:07:07;;;;;;;2.08;1.65;;;10.90;96.70;;;;;;4910620;29;20044;-59
2023/12/10 05:09:37;;;;;;;2.28;2.08;;;10.90;96.70;;;;;;4898369;29;20144;-59
2023/12/10 05:12:07;;;;;;;2.25;2.05;;;10.90;96.70;;;;;;4908950;29;20764;-60
2023/12/10 05:14:36;;;;;;;2.08;1.85;;;10.90;96.70;;;;;;4910673;29;20142;-59
2023/12/10 05:17:05;;;;;;;2.40;2.20;;;10.80;96.70;;;;;;4909174;29;20159;-59
2023/12/10 05:19:33;;;;;;;2.58;2.38;;;10.80;96.70;;;;;;4889287;29;20047;-59
2023/12/10 05:22:02;;;;;;;2.40;2.20;;;10.80;96.70;;;;;;4892268;29;20086;-59
2023/12/10 05:24:31;;;;;;;3.05;2.80;;;10.80;96.70;;;;;;4911877;29;20520;-60
2023/12/10 05:26:59;;;;;;;2.90;2.70;;;10.80;96.70;;;;;;4895245;29;20590;-60
2023/12/10 05:29:30;;;;;;;2.13;1.92;;;10.80;96.70;;;;;;4900112;29;20063;-59
2023/12/10 05:32:00;;;;;;;1.90;1.73;;;10.80;96.70;;;;;;4932641;29;20052;-60
2023/12/10 05:34:29;;;;;;;1.95;1.75;;;10.80;96.70;;;;;;4890093;29;20083;-60
2023/12/10 05:36:58;;;;;;;2.17;1.98;;;10.80;96.70;;;;;;4904773;29;20047;-59
2023/12/10 05:39:27;;;;;;;1.90;1.35;;;10.80;96.70;;;;;;4897553;29;20720;-59
2023/12/10 05:41:57;;;;;;;1.70;1.33;;;10.80;96.70;;;;;;4903922;29;20128;-59
2023/12/10 05:44:31;;;;;;;1.52;1.42;;;10.80;96.70;;;;;;4891305;29;20056;-59
2023/12/10 05:47:00;;;;;;;1.98;1.83;;;10.80;96.70;;;;;;4893688;29;20056;-61
2023/12/10 05:49:29;;;;;;;2.60;2.40;;;10.80;96.70;;;;;;4897301;29;20044;-60
2023/12/10 05:51:59;;;;;;;1.80;1.67;;;10.70;96.70;;;;;;4882602;29;20076;-61
2023/12/10 05:54:30;;;;;;;2.85;1.10;;;10.70;96.70;;;;;;4889382;29;20055;-61
2023/12/10 05:56:59;;;;;;;1.20;0.80;;;10.70;96.70;;;;;;4904842;29;20071;-60
2023/12/10 05:59:30;;;;;;;2.30;1.42;;;10.70;96.70;;;;;;4895724;29;20043;-60
2023/12/10 06:01:59;;;;;;;2.40;2.15;;;10.70;96.70;;;;;;4899462;29;20086;-61
2023/12/10 06:04:28;;;;;;;1.70;1.60;;;10.70;96.70;;;;;;4899909;29;20044;-61
2023/12/10 06:06:58;;;;;;;1.90;1.80;;;10.70;96.70;;;;;;4884692;29;20103;-61
2023/12/10 06:09:28;;;;;;;2.80;1.73;;;10.70;96.70;;;;;;4900418;29;20542;-62
2023/12/10 06:11:57;;;;;;;2.05;1.63;;;10.60;96.70;;;;;;4901735;29;20194;-61
2023/12/10 06:14:31;;;;;;;1.50;1.40;;;10.60;96.70;;;;;;4888528;29;20123;-61
2023/12/10 06:16:59;;;;;;;3.30;3.00;;;10.60;96.70;;;;;;4893877;29;20051;-62
2023/12/10 06:19:29;;;;;;;2.95;1.63;;;10.70;96.70;;;;;;4906714;29;20071;-60
2023/12/10 06:21:57;;;;;;;4.90;1.60;;;10.60;96.70;;;;;;4902798;29;20044;-60
2023/12/10 06:24:28;;;;;;;2.60;2.25;;;10.50;96.70;;;;;;4895491;29;20147;-61
2023/12/10 06:26:57;;;;;;;1.55;1.45;;;10.40;96.70;;;;;;4904955;29;20048;-61
2023/12/10 06:29:26;;;;;;;2.67;1.90;;;10.40;96.70;;;;;;4912218;29;20061;-61
2023/12/10 06:31:57;;;;;;;1.73;1.63;;;10.30;96.70;;;;;;4915649;29;20139;-61
2023/12/10 06:34:26;;;;;;;2.53;2.05;;;10.30;96.70;;;;;;4881648;29;20063;-60
2023/12/10 06:36:56;;;;;;;4.13;3.60;;;10.20;96.70;;;;;;4878031;29;20459;-60
2023/12/10 06:39:25;;;;;;;4.05;2.95;;;10.10;96.70;;;;;;4880399;29;20073;-58
2023/12/10 06:41:54;;;;;;;6.75;3.30;;;10.10;96.70;;;;;;4873541;29;20127;-58
2023/12/10 06:44:24;;;;;;;11.13;4.72;;;10.00;96.70;;;;;;4877703;29;20400;-58
2023/12/10 06:46:56;;;;;;;24.80;6.18;;;10.00;96.70;;;;;;4876792;29;20059;-58
2023/12/10 06:49:25;;;;;;;17.27;5.07;;;10.00;96.70;;;;;;4895913;29;20143;-58
2023/12/10 06:51:56;;;;;;;12.52;4.40;;;9.90;96.70;;;;;;4877221;29;20056;-58
2023/12/10 06:54:25;;;;;;;10.40;3.60;;;10.00;96.70;;;;;;4863084;29;20065;-58
2023/12/10 06:56:55;;;;;;;57.97;7.22;;;10.10;96.70;;;;;;4868513;29;20153;-58
2023/12/10 06:59:24;;;;;;;142.02;9.60;;;10.10;96.70;;;;;;4846268;29;20130;-58
2023/12/10 07:01:53;;;;;;;107.05;6.55;;;10.00;96.70;;;;;;4806123;29;20078;-59
2023/12/10 07:04:24;;;;;;;104.47;6.72;;;9.90;96.70;;;;;;4839595;29;20217;-58
2023/12/10 07:06:53;;;;;;;85.03;6.68;;;9.90;96.70;;;;;;4855206;29;20076;-60
2023/12/10 07:09:24;;;;;;;76.57;5.30;;;9.90;96.70;;;;;;4854705;29;20056;-60
2023/12/10 07:11:53;;;;;;;82.18;6.63;;;10.00;96.70;;;;;;4844228;29;20053;-59
2023/12/10 07:14:21;;;;;;;105.95;7.10;;;10.10;96.70;;;;;;4844922;29;20049;-59
2023/12/10 07:16:50;;;;;;;59.25;4.72;;;10.10;96.70;;;;;;4854605;29;20056;-59
2023/12/10 07:19:18;;;;;;;36.55;4.00;;;10.10;96.70;;;;;;4853565;29;21380;-59
2023/12/10 07:21:52;;;;;;;28.95;3.45;;;10.10;96.70;;;;;;4846062;29;20206;-59
2023/12/10 07:24:21;;;;;;;28.50;6.15;;;10.20;96.70;;;;;;4867928;29;20076;-59
2023/12/10 07:26:50;;;;;;;13.07;4.22;;;10.20;96.70;;;;;;4863456;29;20495;-59
2023/12/10 07:29:19;;;;;;;14.10;3.97;;;10.20;96.70;;;;;;4827642;29;20444;-59
2023/12/10 07:31:48;;;;;;;17.15;5.18;;;10.30;96.70;;;;;;4850585;29;20071;-59
2023/12/10 07:34:17;;;;;;;8.93;4.05;;;10.30;96.70;;;;;;4879339;29;20515;-59
2023/12/10 07:36:46;;;;;;;11.02;4.57;;;10.30;96.70;;;;;;4896850;29;20459;-58
2023/12/10 07:39:17;;;;;;;8.52;4.75;;;10.30;96.70;;;;;;4884173;29;20059;-58
2023/12/10 07:41:47;;;;;;;11.52;5.53;;;10.30;96.70;;;;;;4895839;29;20048;-58
2023/12/10 07:44:16;;;;;;;11.43;5.60;;;10.30;96.70;;;;;;4883922;29;20474;-59
2023/12/10 07:46:46;;;;;;;9.25;4.95;;;10.40;96.70;;;;;;4872338;29;20643;-59
2023/12/10 07:49:17;;;;;;;8.90;4.93;;;10.40;96.70;;;;;;4852310;29;20147;-58
2023/12/10 07:51:47;;;;;;;10.32;6.38;;;10.50;96.70;;;;;;4892935;29;20452;-58
2023/12/10 07:54:18;;;;;;;7.32;5.95;;;10.50;96.70;;;;;;4891077;29;20511;-59
2023/12/10 07:56:47;;;;;;;12.40;6.38;;;10.50;96.70;;;;;;4872563;29;20504;-57
2023/12/10 07:59:17;;;;;;;10.73;7.45;;;10.50;96.70;;;;;;4891619;29;20402;-58
2023/12/10 08:01:46;;;;;;;28.55;18.20;;;10.60;96.70;;;;;;4896862;29;20096;-57
2023/12/10 08:04:15;;;;;;;12.25;8.27;;;10.60;96.70;;;;;;4879935;29;20517;-58
2023/12/10 08:06:45;;;;;;;13.30;8.93;;;10.60;96.70;;;;;;4889763;29;20052;-58
2023/12/10 08:09:14;;;;;;;9.63;7.78;;;10.60;96.70;;;;;;4896863;29;20705;-57
2023/12/10 08:11:45;;;;;;;11.77;8.25;;;10.70;96.70;;;;;;4877547;29;20456;-58
2023/12/10 08:14:14;;;;;;;8.98;7.75;;;10.80;96.70;;;;;;4866231;29;20048;-58
2023/12/10 08:16:45;;;;;;;7.63;6.82;;;10.80;96.70;;;;;;4876845;29;20052;-57
2023/12/10 08:19:13;;;;;;;10.20;7.30;;;10.80;96.70;;;;;;4874762;29;20052;-58
2023/12/10 08:21:44;;;;;;;9.50;7.88;;;10.90;96.70;;;;;;4894878;29;20411;-58
2023/12/10 08:24:13;;;;;;;11.50;8.68;;;11.00;96.70;;;;;;4878000;29;20119;-60
2023/12/10 08:26:44;;;;;;;8.98;7.00;;;11.10;96.70;;;;;;4894803;29;20051;-60
2023/12/10 08:29:13;;;;;;;11.35;7.22;;;11.20;96.70;;;;;;4876045;29;20052;-59
2023/12/10 08:31:42;;;;;;;6.88;5.47;;;11.20;96.70;;;;;;4859455;29;20074;-58
2023/12/10 08:34:11;;;;;;;6.78;4.57;;;11.20;96.70;;;;;;4882408;29;20048;-58
2023/12/10 08:36:40;;;;;;;6.43;5.50;;;11.20;96.70;;;;;;4893721;29;20048;-58
2023/12/10 08:39:08;;;;;;;7.13;5.40;;;11.30;96.70;;;;;;4888768;29;20087;-57
2023/12/10 08:41:37;;;;;;;6.45;4.95;;;11.20;96.70;;;;;;4890183;29;20059;-58
2023/12/10 08:44:08;;;;;;;5.70;4.35;;;11.30;96.70;;;;;;4894331;29;20100;-57
2023/12/10 08:46:36;;;;;;;5.63;5.05;;;11.30;96.70;;;;;;4909228;29;20056;-58
2023/12/10 08:49:05;;;;;;;9.27;5.07;;;11.30;96.70;;;;;;4898916;29;20123;-57
2023/12/10 08:51:36;;;;;;;8.30;5.65;;;11.30;96.70;;;;;;4894891;29;20063;-57
2023/12/10 08:54:07;;;;;;;7.75;5.55;;;11.40;96.70;;;;;;4894918;29;20056;-57
2023/12/10 08:56:38;;;;;;;14.30;6.88;;;11.40;96.70;;;;;;4900142;29;20044;-58
2023/12/10 08:59:09;;;;;;;9.10;6.03;;;11.40;96.70;;;;;;4886153;29;20134;-58
2023/12/10 09:01:37;;;;;;;9.10;5.68;;;11.40;96.70;;;;;;4892430;29;20048;-58
2023/12/10 09:04:07;;;;;;;7.35;6.00;;;11.40;96.70;;;;;;4894816;29;20052;-58
2023/12/10 09:06:36;;;;;;;9.90;6.72;;;11.50;96.70;;;;;;4896160;29;20131;-58
2023/12/10 09:09:05;;;;;;;6.57;5.75;;;11.60;96.70;;;;;;4890757;29;20062;-58
2023/12/10 09:11:34;;;;;;;20.60;6.85;;;11.60;96.70;;;;;;4892996;29;20051;-58
2023/12/10 09:14:07;;;;;;;10.60;5.80;;;11.60;96.70;;;;;;4896239;29;20459;-58
2023/12/10 09:16:38;;;;;;;12.77;5.97;;;11.60;96.70;;;;;;4880013;29;20072;-58
2023/12/10 09:19:07;;;;;;;19.15;5.55;;;11.60;96.70;;;;;;4897310;29;20411;-58
2023/12/10 09:21:36;;;;;;;14.88;6.40;;;11.70;96.70;;;;;;4892566;29;20040;-57
2023/12/10 09:24:06;;;;;;;13.90;6.45;;;11.70;96.70;;;;;;4911609;29;20163;-57
2023/12/10 09:26:35;;;;;;;14.85;7.45;;;11.70;96.70;;;;;;4896554;29;20825;-57
2023/12/10 09:29:03;;;;;;;22.77;5.85;;;11.80;96.70;;;;;;4893352;29;20052;-58
2023/12/10 09:31:32;;;;;;;16.63;5.25;;;11.80;96.70;;;;;;4892656;29;20067;-57
2023/12/10 09:34:02;;;;;;;16.20;6.35;;;11.80;96.70;;;;;;4890908;29;20080;-57
2023/12/10 09:36:32;;;;;;;22.63;6.57;;;11.80;96.70;;;;;;4881793;29;20147;-60
2023/12/10 09:39:01;;;;;;;12.15;5.72;;;11.90;96.70;;;;;;4881059;29;20515;-57
2023/12/10 09:41:30;;;;;;;31.40;7.30;;;11.90;96.70;;;;;;4872812;29;20057;-58
2023/12/10 09:44:00;;;;;;;44.30;6.22;;;11.80;96.70;;;;;;4872723;29;20064;-57
2023/12/10 09:46:32;;;;;;;12.32;4.93;;;11.70;96.70;;;;;;4887933;29;20068;-58
2023/12/10 09:49:05;;;;;;;27.40;6.22;;;11.60;96.70;;;;;;4874865;29;20084;-57
2023/12/10 09:51:34;;;;;;;31.88;6.13;;;11.60;96.70;;;;;;4879155;29;20048;-57
2023/12/10 09:54:03;;;;;;;34.42;8.15;;;11.60;96.70;;;;;;4897629;29;20060;-57
2023/12/10 09:56:33;;;;;;;10.73;5.97;;;11.60;96.70;;;;;;4866455;29;20048;-57
2023/12/10 09:59:01;;;;;;;11.93;8.02;;;11.60;96.70;;;;;;4891629;29;20049;-57
2023/12/10 10:01:30;;;;;;;14.23;9.00;;;11.70;96.70;;;;;;4879206;29;20044;-57
2023/12/10 10:04:03;;;;;;;13.15;7.53;;;11.80;96.70;;;;;;4869264;29;20640;-57
2023/12/10 10:06:33;;;;;;;16.15;8.00;;;11.90;96.70;;;;;;4880216;29;20044;-57
2023/12/10 10:09:05;;;;;;;10.85;7.45;;;12.00;96.70;;;;;;4873525;29;20482;-57
2023/12/10 10:11:33;;;;;;;10.30;7.22;;;12.00;96.70;;;;;;4875782;29;20032;-56
2023/12/10 10:14:02;;;;;;;9.80;7.85;;;11.90;96.70;;;;;;4888799;29;20519;-57
2023/12/10 10:16:31;;;;;;;14.05;7.82;;;11.80;96.70;;;;;;4889344;29;20495;-57
2023/12/10 10:19:00;;;;;;;11.10;7.30;;;11.80;96.70;;;;;;4892036;29;20072;-58
2023/12/10 10:21:32;;;;;;;14.13;8.88;;;11.80;96.70;;;;;;4878308;29;20135;-57
2023/12/10 10:24:03;;;;;;;8.30;7.28;;;11.80;96.70;;;;;;4880761;29;20130;-57
2023/12/10 10:26:34;;;;;;;8.63;7.38;;;11.80;96.70;;;;;;4877394;29;20074;-58
2023/12/10 10:29:04;;;;;;;7.93;6.72;;;11.90;96.70;;;;;;4891895;29;20127;-58
2023/12/10 10:31:33;;;;;;;7.53;6.72;;;12.00;96.70;;;;;;4881790;29;20499;-58
2023/12/10 10:34:04;;;;;;;7.53;6.53;;;12.00;96.70;;;;;;4886995;29;20059;-58
2023/12/10 10:36:36;;;;;;;8.35;7.20;;;12.10;96.70;;;;;;4913930;29;20054;-59
2023/12/10 10:39:07;;;;;;;7.80;7.00;;;12.20;96.70;;;;;;4907331;29;20442;-58
2023/12/10 10:41:36;;;;;;;7.95;6.43;;;12.20;96.70;;;;;;4886701;29;20127;-58
2023/12/10 10:44:05;;;;;;;7.78;6.97;;;12.20;96.70;;;;;;4884997;29;20514;-59
2023/12/10 10:46:34;;;;;;;9.50;6.63;;;12.20;96.70;;;;;;4898767;29;20050;-60
2023/12/10 10:49:03;;;;;;;8.13;7.30;;;12.20;96.70;;;;;;4884176;29;20088;-58
2023/12/10 10:51:35;;;;;;;9.30;6.40;;;12.20;96.70;;;;;;4898280;29;20072;-58
2023/12/10 10:54:15;;;;;;;;;;;;;;;;;;;;;
2023/12/10 10:56:45;;;;;;;5.57;4.88;;;12.40;96.70;;;;;;4909176;29;20877;-59
2023/12/10 10:59:35;;;;;;;5.97;5.38;;;12.40;96.70;;;;;;4895087;29;20074;-59
2023/12/10 11:02:07;;;;;;;5.35;4.85;;;12.50;96.70;;;;;;4909890;29;20134;-58
2023/12/10 11:04:39;;;;;;;8.27;6.22;;;12.60;96.70;;;;;;4893218;29;20056;-59
2023/12/10 11:07:14;;;;;;;7.30;6.13;;;12.70;96.70;;;;;;4883557;29;20071;-60
2023/12/10 11:09:57;;;;;;;5.75;5.10;;;12.80;96.70;;;;;;4893090;29;20055;-58
2023/12/10 11:12:59;;;;;;;6.18;5.22;;;13.10;96.70;;;;;;4911330;29;20062;-58
2023/12/10 11:15:29;;;;;;;8.15;6.38;;;13.10;96.70;;;;;;4913141;29;20052;-60
2023/12/10 11:17:59;;;;;;;9.27;8.35;;;13.10;96.70;;;;;;4909425;29;20075;-58
2023/12/10 11:20:34;;;;;;;11.20;9.20;;;13.10;96.70;;;;;;4899562;29;20178;-59
2023/12/10 11:23:08;;;;;;;10.10;8.38;;;13.10;96.70;;;;;;4909826;29;20795;-59
2023/12/10 11:25:39;;;;;;;10.48;8.50;;;13.20;96.70;;;;;;4900957;29;20056;-60
2023/12/10 11:28:12;;;;;;;8.20;6.70;;;13.20;96.70;;;;;;4900629;29;20048;-60
2023/12/10 11:30:42;;;;;;;6.70;5.35;;;13.40;96.70;;;;;;4900610;29;20050;-60
2023/12/10 11:33:12;;;;;;;6.85;5.13;;;13.50;96.70;;;;;;4896283;29;20060;-60
2023/12/10 11:35:41;;;;;;;5.95;4.65;;;13.60;96.70;;;;;;4900988;29;20059;-60
2023/12/10 11:38:12;;;;;;;7.00;5.78;;;13.80;96.70;;;;;;4898238;29;20592;-60
2023/12/10 11:40:41;;;;;;;6.95;5.20;;;13.90;96.70;;;;;;4895380;29;20064;-60
2023/12/10 11:43:10;;;;;;;7.78;4.68;;;13.90;96.70;;;;;;4895155;29;20422;-60
2023/12/10 11:45:39;;;;;;;9.15;6.63;;;13.90;96.70;;;;;;4901676;29;20530;-60
2023/12/10 11:48:08;;;;;;;8.82;6.85;;;14.10;96.70;;;;;;4899690;29;20052;-60
2023/12/10 11:50:38;;;;;;;8.45;7.60;;;14.30;96.70;;;;;;4914061;29;20143;-60
2023/12/10 11:53:07;;;;;;;8.82;7.50;;;14.40;96.70;;;;;;4891734;29;20071;-61
2023/12/10 11:55:37;;;;;;;10.32;7.28;;;14.50;96.70;;;;;;4900132;29;20696;-60
2023/12/10 11:58:08;;;;;;;7.53;6.72;;;14.60;96.70;;;;;;4893866;29;20063;-60
2023/12/10 12:00:36;;;;;;;8.32;6.60;;;14.60;96.70;;;;;;4899948;29;20063;-60
2023/12/10 12:03:05;;;;;;;7.05;5.78;;;14.70;96.70;;;;;;4895837;29;20040;-61
2023/12/10 12:05:37;;;;;;;9.27;5.32;;;14.80;96.70;;;;;;4884275;29;20470;-61
2023/12/10 12:08:06;;;;;;;7.25;4.50;;;14.90;96.70;;;;;;4895231;29;20400;-60
2023/12/10 12:10:43;;;;;;;14.25;9.68;;;15.00;96.70;;;;;;4900840;29;20107;-60
2023/12/10 12:13:11;;;;;;;7.47;3.97;;;15.00;96.70;;;;;;4895741;29;20052;-61
2023/12/10 12:15:45;;;;;;;5.07;2.22;;;15.10;96.70;;;;;;4889981;29;20063;-60
2023/12/10 12:18:15;;;;;;;12.05;6.75;;;15.20;96.70;;;;;;4885157;29;20111;-60
2023/12/10 12:20:44;;;;;;;8.15;4.40;;;15.20;96.70;;;;;;4893937;29;20058;-60
2023/12/10 12:23:13;;;;;;;10.15;5.38;;;15.00;96.70;;;;;;4902410;29;20055;-60
2023/12/10 12:25:44;;;;;;;11.15;3.85;;;15.20;96.70;;;;;;4896953;29;20044;-61
2023/12/10 12:28:13;;;;;;;11.68;6.97;;;15.20;96.70;;;;;;4879407;29;20052;-61
2023/12/10 12:30:43;;;;;;;11.48;5.30;;;15.30;96.70;;;;;;4883505;29;20094;-60
2023/12/10 12:33:12;;;;;;;5.05;3.05;;;15.50;96.70;;;;;;4905284;29;20399;-61
2023/12/10 12:35:43;;;;;;;8.10;4.82;;;15.60;96.70;;;;;;4897400;29;20135;-61
2023/12/10 12:38:12;;;;;;;8.70;3.35;;;15.60;96.70;;;;;;4894143;29;20052;-61
2023/12/10 12:40:44;;;;;;;10.98;4.70;;;15.80;96.70;;;;;;4900367;29;20074;-60
2023/12/10 12:43:14;;;;;;;6.78;2.53;;;15.90;96.70;;;;;;4894947;29;20052;-61
2023/12/10 12:45:44;;;;;;;5.03;2.83;;;15.80;96.70;;;;;;4902392;29;20055;-62
2023/12/10 12:48:14;;;;;;;7.38;3.00;;;15.90;96.70;;;;;;4886230;29;20075;-61
2023/12/10 12:50:43;;;;;;;11.48;4.82;;;16.00;96.70;;;;;;4889278;29;20086;-61
2023/12/10 12:53:12;;;;;;;5.57;3.22;;;16.00;96.70;;;;;;4905176;29;20051;-61
2023/12/10 12:55:41;;;;;;;8.07;3.38;;;16.00;96.70;;;;;;4894656;29;20072;-60
2023/12/10 12:58:11;;;;;;;3.72;2.45;;;16.10;96.70;;;;;;4900752;29;20235;-61
2023/12/10 13:00:40;;;;;;;6.30;3.05;;;16.30;96.70;;;;;;4898967;29;20051;-60
2023/12/10 13:03:10;;;;;;;6.22;2.80;;;16.20;96.70;;;;;;4927336;29;20395;-61